Time;durP1;ratioP1;P1;durP2;ratioP2;P2;SDS_P1;SDS_P2;PMS_P1;PMS_P2;Temp;Humidity;BMP_temperature;BMP_pressure;BME280_temperature;BME280_humidity;BME280_pressure;Samples;Min_cycle;Max_cycle;Signal;HPM_P1;HPM_P2
2021/03/24 00:01:57;;;;;;;18.17;13.07;;;;;;;4.45;73.29;99402.92;2135552;83;21123;-79
2021/03/24 00:04:58;;;;;;;25.08;13.03;;;;;;;4.44;73.27;99405.03;2135848;83;21153;-79
2021/03/24 00:07:59;;;;;;;18.27;11.67;;;;;;;4.42;73.36;99409.25;2135728;83;21096;-78
2021/03/24 00:11:00;;;;;;;24.17;13.43;;;;;;;4.41;73.20;99408.36;2135671;83;21153;-79
2021/03/24 00:14:04;;;;;;;22.23;12.80;;;;;;;4.40;73.17;99398.84;2135850;83;21128;-79
2021/03/24 00:17:05;;;;;;;17.37;12.17;;;;;;;4.40;73.08;99405.30;2135755;83;21252;-80
2021/03/24 00:20:06;;;;;;;22.30;13.10;;;;;;;4.38;72.94;99408.22;2135157;83;21406;-77
2021/03/24 00:23:07;;;;;;;18.57;12.37;;;;;;;4.38;72.86;99406.94;2135193;83;21256;-78
2021/03/24 00:26:09;;;;;;;17.23;12.93;;;;;;;4.39;72.81;99416.86;2135760;83;21176;-79
2021/03/24 00:29:10;;;;;;;20.60;13.30;;;;;;;4.36;72.87;99407.27;2135027;83;21142;-79
2021/03/24 00:32:11;;;;;;;20.83;12.30;;;;;;;4.35;72.84;99404.21;2134954;83;21267;-79
2021/03/24 00:35:12;;;;;;;18.67;12.73;;;;;;;4.33;72.93;99409.69;2135803;83;21126;-79
2021/03/24 00:38:13;;;;;;;20.20;13.27;;;;;;;4.32;72.71;99397.58;2135800;83;21405;-79
2021/03/24 00:41:14;;;;;;;20.10;12.43;;;;;;;4.31;72.92;99402.27;2135558;83;21145;-79
2021/03/24 00:44:15;;;;;;;22.73;13.10;;;;;;;4.31;72.86;99402.27;2135714;83;21124;-82
2021/03/24 00:47:16;;;;;;;22.87;13.03;;;;;;;4.32;72.95;99401.45;2135613;83;21141;-78
2021/03/24 00:50:17;;;;;;;21.47;12.53;;;;;;;4.30;72.85;99397.91;2134911;83;21243;-80
2021/03/24 00:53:18;;;;;;;24.33;13.17;;;;;;;4.31;72.70;99407.84;2134519;83;21129;-80
2021/03/24 00:56:19;;;;;;;21.30;13.87;;;;;;;4.29;72.62;99400.02;2135019;83;21168;-78
2021/03/24 00:59:20;;;;;;;18.53;13.67;;;;;;;4.27;72.82;99397.78;2135129;83;21227;-79
2021/03/24 01:02:21;;;;;;;20.53;12.73;;;;;;;4.26;72.73;99395.12;2134189;83;21097;-79
2021/03/24 01:05:22;;;;;;;22.67;14.13;;;;;;;4.26;72.81;99394.72;2135243;83;21322;-79
2021/03/24 01:08:23;;;;;;;24.87;13.90;;;;;;;4.25;72.94;99399.41;2136034;83;21138;-79
2021/03/24 01:11:30;;;;;;;22.47;13.20;;;;;;;4.22;72.84;99399.27;2135915;83;21203;-80
2021/03/24 01:14:31;;;;;;;24.63;14.30;;;;;;;4.21;72.88;99396.20;2136084;83;21159;-79
2021/03/24 01:17:33;;;;;;;24.40;14.97;;;;;;;4.21;72.84;99402.67;2135731;83;21268;-78
2021/03/24 01:20:34;;;;;;;28.27;14.53;;;;;;;4.20;72.90;99415.11;2135842;83;21426;-80
2021/03/24 01:23:35;;;;;;;24.43;14.10;;;;;;;4.22;72.83;99406.13;2135575;83;21141;-78
2021/03/24 01:26:36;;;;;;;19.87;13.50;;;;;;;4.23;72.78;99407.91;2135559;83;21164;-79
2021/03/24 01:29:37;;;;;;;22.90;14.67;;;;;;;4.20;72.72;99407.36;2135975;83;21153;-79
2021/03/24 01:32:38;;;;;;;25.73;15.20;;;;;;;4.20;72.82;99406.47;2134983;83;21093;-78
2021/03/24 01:35:39;;;;;;;25.87;13.90;;;;;;;4.18;72.72;99408.98;2135096;83;21271;-80
2021/03/24 01:38:41;;;;;;;26.53;14.47;;;;;;;4.16;72.85;99411.50;2135985;83;21104;-81
2021/03/24 01:41:42;;;;;;;23.63;13.40;;;;;;;4.15;72.79;99407.14;2135623;83;21406;-80
2021/03/24 01:44:43;;;;;;;23.77;14.13;;;;;;;4.13;72.88;99407.89;2135837;83;21144;-82
2021/03/24 01:47:44;;;;;;;18.77;13.30;;;;;;;4.13;72.71;99413.06;2135730;83;21451;-80
2021/03/24 01:50:45;;;;;;;26.17;14.20;;;;;;;4.10;72.88;99409.04;2135674;83;21108;-81
2021/03/24 01:53:46;;;;;;;22.37;14.17;;;;;;;4.08;72.80;99410.67;2135222;83;21173;-79
2021/03/24 01:56:47;;;;;;;27.33;14.10;;;;;;;4.06;72.85;99412.30;2135280;83;21197;-80
2021/03/24 01:59:48;;;;;;;20.60;14.13;;;;;;;4.02;73.10;99410.39;2135884;83;21157;-77
2021/03/24 02:02:49;;;;;;;24.60;14.77;;;;;;;4.01;72.95;99410.80;2135269;83;21471;-79
2021/03/24 02:05:50;;;;;;;25.33;14.77;;;;;;;4.01;72.97;99416.37;2134773;83;21566;-77
2021/03/24 02:08:51;;;;;;;26.07;14.83;;;;;;;4.01;72.92;99422.83;2134717;83;21438;-77
2021/03/24 02:11:52;;;;;;;25.90;14.40;;;;;;;4.00;73.13;99422.34;2135068;83;21149;-77
2021/03/24 02:14:53;;;;;;;23.77;13.77;;;;;;;3.97;72.95;99418.33;2134756;83;21451;-78
2021/03/24 02:17:54;;;;;;;20.63;13.90;;;;;;;3.97;73.30;99424.78;2135356;83;21459;-78
2021/03/24 02:20:55;;;;;;;24.20;14.57;;;;;;;3.97;73.14;99423.49;2135139;83;21162;-77
2021/03/24 02:23:56;;;;;;;21.73;14.73;;;;;;;3.95;73.25;99432.87;2135118;83;21165;-77
2021/03/24 02:26:57;;;;;;;25.77;13.37;;;;;;;3.92;73.37;99434.02;2135527;83;21177;-78
2021/03/24 02:29:58;;;;;;;22.97;14.73;;;;;;;3.91;73.27;99436.13;2134740;83;21161;-78
2021/03/24 02:32:59;;;;;;;19.10;14.13;;;;;;;3.90;73.47;99424.02;2135146;83;21404;-78
2021/03/24 02:36:00;;;;;;;23.63;15.13;;;;;;;3.89;73.35;99433.47;2136109;83;21189;-79
2021/03/24 02:39:01;;;;;;;24.20;14.93;;;;;;;3.88;73.48;99434.69;2136181;83;21126;-79
2021/03/24 02:42:05;;;;;;;18.90;12.87;;;;;;;3.86;73.19;99424.69;2135730;83;21157;-79
2021/03/24 02:45:06;;;;;;;21.30;13.77;;;;;;;3.87;73.38;99434.20;2135180;83;21459;-79
2021/03/24 02:48:07;;;;;;;22.73;13.83;;;;;;;3.86;73.32;99434.61;2135610;83;21145;-79
2021/03/24 02:51:08;;;;;;;27.10;16.37;;;;;;;3.88;73.20;99432.98;2135465;83;21223;-78
2021/03/24 02:54:09;;;;;;;22.53;14.73;;;;;;;3.89;73.26;99437.75;2135904;83;21193;-77
2021/03/24 02:57:10;;;;;;;23.60;14.17;;;;;;;3.89;73.28;99436.45;2135471;83;21144;-78
2021/03/24 03:00:11;;;;;;;22.63;14.53;;;;;;;3.88;73.43;99442.43;2135099;83;21415;-79
2021/03/24 03:03:12;;;;;;;29.27;14.50;;;;;;;3.89;73.47;99435.16;2134297;83;21694;-78
2021/03/24 03:06:13;;;;;;;27.67;14.93;;;;;;;3.88;73.20;99428.23;2135617;83;21157;-80
2021/03/24 03:09:15;;;;;;;24.50;15.13;;;;;;;3.87;73.33;99438.08;2135085;83;21421;-80
2021/03/24 03:12:16;;;;;;;20.27;13.67;;;;;;;3.87;73.38;99426.45;2135215;83;21144;-78
2021/03/24 03:15:17;;;;;;;22.37;14.17;;;;;;;3.85;73.45;99435.42;2135146;83;21448;-80
2021/03/24 03:18:18;;;;;;;26.00;14.50;;;;;;;3.86;73.50;99435.91;2135484;83;21169;-78
2021/03/24 03:21:20;;;;;;;24.03;14.27;;;;;;;3.84;73.29;99435.83;2135188;83;21382;-78
2021/03/24 03:24:23;;;;;;;23.17;15.27;;;;;;;3.83;73.50;99436.64;2135387;83;21145;-78
2021/03/24 03:27:24;;;;;;;19.90;13.97;;;;;;;3.82;73.45;99437.45;2135324;83;21144;-78
2021/03/24 03:30:25;;;;;;;23.60;14.70;;;;;;;3.81;73.39;99434.80;2135332;83;21158;-78
2021/03/24 03:33:30;;;;;;;24.83;14.13;;;;;;;3.81;73.44;99439.96;2134988;83;21124;-79
2021/03/24 03:36:31;;;;;;;;;;;;;;;3.80;73.51;99432.62;2137781;83;21142;-78
2021/03/24 03:39:34;;;;;;;27.30;14.20;;;;;;;3.79;73.53;99438.60;2135529;83;20177;-79
2021/03/24 03:42:35;;;;;;;19.57;14.07;;;;;;;3.76;73.48;99430.70;2135052;83;21417;-78
2021/03/24 03:45:38;;;;;;;23.13;14.53;;;;;;;3.76;73.51;99430.70;2135250;83;21434;-77
2021/03/24 03:48:39;;;;;;;22.57;13.97;;;;;;;3.75;73.69;99431.52;2134899;83;21533;-79
2021/03/24 03:51:40;;;;;;;23.37;15.17;;;;;;;3.75;73.53;99434.10;2134857;83;21106;-78
2021/03/24 03:54:41;;;;;;;24.30;14.03;;;;;;;3.74;73.61;99428.86;2134586;83;21311;-78
2021/03/24 03:57:45;;;;;;;21.77;14.90;;;;;;;3.75;73.62;99429.34;2141536;83;21164;-78
2021/03/24 04:00:46;;;;;;;24.33;14.63;;;;;;;3.74;73.60;99419.83;2150104;83;21234;-78
2021/03/24 04:03:47;;;;;;;23.27;14.60;;;;;;;3.74;73.58;99418.53;2150642;83;21280;-78
2021/03/24 04:06:48;;;;;;;21.57;14.83;;;;;;;3.72;73.38;99419.75;2149932;83;21250;-78
2021/03/24 04:09:49;;;;;;;27.33;14.83;;;;;;;3.71;73.65;99424.44;2150417;83;21153;-78
2021/03/24 04:12:50;;;;;;;23.37;14.13;;;;;;;3.70;73.46;99425.25;2150230;83;21251;-78
2021/03/24 04:15:52;;;;;;;18.50;13.20;;;;;;;3.69;73.49;99431.23;2150317;83;21268;-77
2021/03/24 04:18:54;;;;;;;27.77;14.77;;;;;;;3.69;73.54;99428.64;2149777;83;21253;-79
2021/03/24 04:21:55;;;;;;;25.37;14.23;;;;;;;3.68;73.64;99428.16;2150722;83;21380;-77
2021/03/24 04:24:56;;;;;;;23.77;14.07;;;;;;;3.69;73.56;99431.63;2149842;83;21258;-79
2021/03/24 04:27:57;;;;;;;22.93;14.03;;;;;;;3.70;73.55;99438.16;2150536;83;21156;-78
2021/03/24 04:30:58;;;;;;;24.83;14.57;;;;;;;3.68;73.49;99434.62;2149874;83;21111;-78
2021/03/24 04:33:59;;;;;;;25.77;15.13;;;;;;;3.68;73.71;99444.95;2149672;83;21303;-78
2021/03/24 04:37:00;;;;;;;22.30;14.50;;;;;;;3.66;73.82;99443.10;2149142;83;21894;-78
2021/03/24 04:40:01;;;;;;;23.53;14.43;;;;;;;3.65;73.64;99442.22;2148244;83;21272;-77
2021/03/24 04:43:02;;;;;;;23.03;14.30;;;;;;;3.67;73.86;99450.92;2147833;83;21103;-77
2021/03/24 04:46:03;;;;;;;22.63;14.63;;;;;;;3.68;73.63;99448.82;2147883;83;21612;-77
2021/03/24 04:49:04;;;;;;;25.63;14.80;;;;;;;3.69;73.69;99450.59;2147303;83;21265;-78
2021/03/24 04:52:05;;;;;;;27.07;14.63;;;;;;;3.70;73.62;99460.11;2146624;83;21129;-78
2021/03/24 04:55:06;;;;;;;21.27;14.57;;;;;;;3.70;73.68;99456.64;2146234;83;21293;-78
2021/03/24 04:58:07;;;;;;;24.43;14.93;;;;;;;3.70;73.80;99457.52;2138510;81;21165;-77
2021/03/24 05:01:08;;;;;;;24.57;14.70;;;;;;;3.72;73.57;99461.06;2129617;83;21602;-77
2021/03/24 05:04:09;;;;;;;24.70;14.67;;;;;;;3.76;73.60;99463.39;2131031;83;21134;-78
2021/03/24 05:07:10;;;;;;;20.13;13.60;;;;;;;3.77;73.60;99467.75;2131141;83;21239;-78
2021/03/24 05:10:11;;;;;;;22.87;14.77;;;;;;;3.81;73.68;99469.26;2130793;83;21129;-77
2021/03/24 05:13:12;;;;;;;23.83;14.57;;;;;;;3.83;73.41;99475.37;2131426;83;21120;-77
2021/03/24 05:16:13;;;;;;;32.37;15.00;;;;;;;3.89;73.37;99471.32;2131553;83;21150;-77
2021/03/24 05:19:14;;;;;;;26.37;15.93;;;;;;;3.92;73.34;99483.09;2131576;83;21112;-78
2021/03/24 05:22:15;;;;;;;29.53;15.07;;;;;;;3.93;73.24;99477.11;2131736;83;21122;-79
2021/03/24 05:25:16;;;;;;;24.97;14.47;;;;;;;3.96;73.32;99483.72;2131431;83;21116;-77
2021/03/24 05:28:18;;;;;;;19.93;13.73;;;;;;;3.96;73.28;99482.42;2132306;83;21174;-79
2021/03/24 05:31:19;;;;;;;21.80;15.40;;;;;;;3.99;73.27;99487.73;2131764;83;21115;-78
2021/03/24 05:34:22;;;;;;;27.10;14.73;;;;;;;4.03;73.29;99493.53;2131615;83;21288;-77
2021/03/24 05:37:24;;;;;;;29.65;15.23;;;;;;;4.09;73.03;99498.58;2131463;83;21100;-77
2021/03/24 05:40:25;;;;;;;26.67;16.37;;;;;;;4.13;73.01;99499.20;2131143;83;21129;-77
2021/03/24 05:43:26;;;;;;;26.23;15.63;;;;;;;4.15;72.98;99501.45;2131386;83;21876;-78
2021/03/24 05:46:27;;;;;;;23.40;16.43;;;;;;;4.18;72.89;99498.54;2131191;83;21316;-78
2021/03/24 05:49:28;;;;;;;28.73;15.50;;;;;;;4.21;72.89;99499.57;2130900;83;21258;-78
2021/03/24 05:52:29;;;;;;;25.37;15.60;;;;;;;4.27;72.70;99495.09;2131035;83;21113;-78
2021/03/24 05:55:30;;;;;;;23.57;15.13;;;;;;;4.32;72.62;99503.54;2131633;83;21365;-77
2021/03/24 05:58:32;;;;;;;33.87;21.77;;;;;;;4.36;72.56;99504.61;2131276;83;21329;-77
2021/03/24 06:01:33;;;;;;;28.57;15.40;;;;;;;4.39;72.45;99503.05;2130709;83;21088;-77
2021/03/24 06:04:34;;;;;;;27.60;16.60;;;;;;;4.44;72.35;99498.98;2131055;83;21420;-77
2021/03/24 06:07:35;;;;;;;28.67;16.77;;;;;;;4.48;72.36;99500.89;2130871;83;21435;-77
2021/03/24 06:10:36;;;;;;;29.50;16.53;;;;;;;4.56;72.24;99510.29;2130906;83;21158;-76
2021/03/24 06:13:37;;;;;;;26.77;16.73;;;;;;;4.60;72.14;99507.44;2130890;83;21251;-77
2021/03/24 06:16:38;;;;;;;27.27;16.03;;;;;;;4.64;71.95;99505.47;2131406;83;21149;-78
2021/03/24 06:19:39;;;;;;;37.97;20.00;;;;;;;4.63;72.00;99511.05;2131419;83;21435;-79
2021/03/24 06:22:40;;;;;;;27.13;17.10;;;;;;;4.67;71.95;99509.08;2130040;83;21174;-77
2021/03/24 06:25:41;;;;;;;34.13;17.73;;;;;;;4.74;71.90;99515.41;2130063;83;21270;-76
2021/03/24 06:28:42;;;;;;;28.77;17.77;;;;;;;4.79;71.69;99516.51;2129990;83;21157;-75
2021/03/24 06:31:44;;;;;;;32.77;19.57;;;;;;;4.83;71.52;99511.95;2130508;83;21853;-76
2021/03/24 06:34:45;;;;;;;30.87;17.97;;;;;;;4.89;71.49;99513.52;2130387;83;21280;-77
2021/03/24 06:37:46;;;;;;;40.30;17.87;;;;;;;5.00;71.32;99512.70;2131293;83;21112;-77
2021/03/24 06:40:47;;;;;;;27.97;19.17;;;;;;;5.09;70.96;99520.87;2130482;83;21280;-77
2021/03/24 06:43:48;;;;;;;34.67;18.67;;;;;;;5.13;70.81;99522.36;2130941;83;21112;-77
2021/03/24 06:46:49;;;;;;;29.10;17.03;;;;;;;5.19;70.73;99528.63;2130986;83;21264;-76
2021/03/24 06:49:50;;;;;;;28.67;18.73;;;;;;;5.18;70.46;99534.63;2130904;83;21096;-76
2021/03/24 06:52:51;;;;;;;62.70;21.13;;;;;;;5.16;70.49;99534.55;2130682;83;21276;-77
2021/03/24 06:55:52;;;;;;;37.70;21.33;;;;;;;5.19;70.53;99535.09;2130459;83;21282;-78
2021/03/24 06:58:53;;;;;;;35.87;19.50;;;;;;;5.24;70.30;99542.69;2132439;83;21263;-77
2021/03/24 07:01:54;;;;;;;36.10;19.77;;;;;;;5.24;70.30;99544.86;2133728;83;21570;-76
2021/03/24 07:04:55;;;;;;;27.00;17.93;;;;;;;5.26;70.51;99545.82;2134246;83;21255;-76
2021/03/24 07:07:57;;;;;;;32.40;18.40;;;;;;;5.24;70.29;99546.16;2134255;83;21212;-76
2021/03/24 07:10:58;;;;;;;29.13;19.10;;;;;;;5.27;70.44;99547.59;2134291;83;21783;-76
2021/03/24 07:13:59;;;;;;;43.90;19.67;;;;;;;5.29;70.25;99545.06;2134927;83;21600;-77
2021/03/24 07:17:00;;;;;;;37.07;21.47;;;;;;;5.38;70.29;99551.53;2135531;83;21252;-76
2021/03/24 07:20:01;;;;;;;33.77;21.13;;;;;;;5.42;70.08;99555.14;2135136;83;21141;-77
2021/03/24 07:23:02;;;;;;;33.90;18.77;;;;;;;5.37;69.89;99559.23;2135081;83;21951;-78
2021/03/24 07:26:03;;;;;;;33.60;19.93;;;;;;;5.37;69.90;99557.94;2134180;83;21125;-77
2021/03/24 07:29:04;;;;;;;33.80;20.77;;;;;;;5.40;69.97;99557.66;2133471;83;21157;-76
2021/03/24 07:32:07;;;;;;;34.43;19.70;;;;;;;5.40;69.97;99557.66;2134187;83;21120;-77
2021/03/24 07:35:08;;;;;;;118.30;59.23;;;;;;;5.43;69.84;99560.79;2135406;83;21509;-78
2021/03/24 07:38:09;;;;;;;37.23;20.53;;;;;;;6.58;77.92;99558.69;2133698;83;21300;-76
2021/03/24 07:41:10;;;;;;;39.77;21.53;;;;;;;7.70;65.49;99559.39;2134191;83;21141;-77
2021/03/24 07:44:11;;;;;;;41.60;24.97;;;;;;;6.99;66.03;99562.47;2135102;83;21149;-76
2021/03/24 07:47:12;;;;;;;50.07;27.17;;;;;;;6.64;66.44;99576.67;2135311;83;21295;-78
2021/03/24 07:50:13;;;;;;;70.80;36.87;;;;;;;6.44;66.92;99572.83;2135250;83;21153;-76
2021/03/24 07:53:14;;;;;;;33.90;20.37;;;;;;;6.32;66.94;99572.81;2134793;83;21264;-76
2021/03/24 07:56:16;;;;;;;37.20;21.83;;;;;;;6.28;67.10;99570.03;2134445;83;21153;-77
2021/03/24 07:59:17;;;;;;;31.50;20.37;;;;;;;6.25;66.92;99575.09;2134700;83;21291;-76
2021/03/24 08:02:18;;;;;;;36.37;20.30;;;;;;;6.21;67.21;99567.60;2134843;83;21153;-77
2021/03/24 08:05:19;;;;;;;43.73;24.83;;;;;;;6.11;67.38;99577.13;2135210;83;21169;-78
2021/03/24 08:08:20;;;;;;;40.33;22.70;;;;;;;6.09;67.39;99581.36;2135174;83;21538;-76
2021/03/24 08:11:21;;;;;;;35.70;21.30;;;;;;;6.02;67.56;99583.19;2134897;83;21276;-76
2021/03/24 08:14:22;;;;;;;36.30;20.37;;;;;;;6.02;67.57;99583.19;2134906;83;21300;-76
2021/03/24 08:17:23;;;;;;;34.43;21.30;;;;;;;6.03;67.78;99578.48;2133657;83;21856;-77
2021/03/24 08:20:24;;;;;;;35.97;22.57;;;;;;;5.98;67.80;99584.77;2133990;83;21198;-75
2021/03/24 08:23:25;;;;;;;42.60;22.83;;;;;;;5.89;67.77;99584.77;2135056;83;21169;-75
2021/03/24 08:26:26;;;;;;;72.10;25.53;;;;;;;5.82;68.13;99581.44;2134744;83;21166;-76
2021/03/24 08:29:27;;;;;;;41.13;23.80;;;;;;;5.76;68.36;99582.95;2133400;83;21910;-76
2021/03/24 08:32:28;;;;;;;39.97;23.53;;;;;;;5.78;68.45;99588.61;2135177;83;21272;-76
2021/03/24 08:35:29;;;;;;;44.53;24.97;;;;;;;5.67;68.40;99587.74;2134016;83;21149;-76
2021/03/24 08:38:30;;;;;;;37.57;23.60;;;;;;;5.56;68.69;99591.98;2133523;83;21921;-76
2021/03/24 08:41:31;;;;;;;37.20;24.27;;;;;;;5.50;68.91;99592.61;2134324;83;21109;-76
2021/03/24 08:44:32;;;;;;;42.97;23.67;;;;;;;5.49;69.06;99594.72;2134635;83;21133;-76
2021/03/24 08:47:33;;;;;;;38.97;25.13;;;;;;;5.46;69.20;99589.81;2133860;83;21154;-75
2021/03/24 08:50:36;;;;;;;47.03;25.43;;;;;;;5.39;69.31;99592.55;2133221;83;21655;-75
2021/03/24 08:53:38;;;;;;;43.93;25.07;;;;;;;5.32;69.44;99591.39;2133176;83;21117;-75
2021/03/24 08:56:39;;;;;;;42.73;24.53;;;;;;;5.32;69.53;99593.09;2134229;83;21155;-76
2021/03/24 08:59:40;;;;;;;45.07;24.93;;;;;;;5.30;69.55;99585.26;2133615;83;21266;-75
2021/03/24 09:02:41;;;;;;;43.43;26.13;;;;;;;5.36;69.63;99587.23;2133735;83;21257;-77
2021/03/24 09:05:42;;;;;;;40.53;24.47;;;;;;;5.35;69.65;99584.17;2134168;83;21161;-77
2021/03/24 09:08:43;;;;;;;35.40;23.73;;;;;;;5.36;69.70;99582.05;2132980;83;21295;-76
2021/03/24 09:11:44;;;;;;;42.10;25.47;;;;;;;5.40;69.53;99582.66;2133198;83;21154;-76
2021/03/24 09:14:45;;;;;;;39.43;24.70;;;;;;;5.49;69.53;99578.30;2134628;83;21343;-76
2021/03/24 09:17:46;;;;;;;41.67;24.73;;;;;;;5.60;69.24;99575.76;2133977;83;21142;-77
2021/03/24 09:20:48;;;;;;;42.07;24.77;;;;;;;5.67;68.97;99579.97;2133077;83;21271;-77
2021/03/24 09:23:49;;;;;;;55.47;26.07;;;;;;;5.72;69.96;99578.88;2133976;83;21260;-77
2021/03/24 09:26:50;;;;;;;41.00;24.10;;;;;;;5.87;68.80;99585.11;2133989;83;21129;-76
2021/03/24 09:29:51;;;;;;;42.70;23.70;;;;;;;5.97;68.39;99578.23;2133107;83;21161;-76
2021/03/24 09:32:52;;;;;;;51.47;24.70;;;;;;;6.09;68.23;99584.37;2133104;83;21617;-76
2021/03/24 09:35:53;;;;;;;40.93;23.30;;;;;;;6.18;67.87;99583.45;2134163;83;21153;-76
2021/03/24 09:38:54;;;;;;;46.33;23.70;;;;;;;6.24;67.80;99578.51;2134005;83;21534;-77
2021/03/24 09:41:55;;;;;;;46.07;23.93;;;;;;;6.29;67.19;99581.77;2134831;83;21138;-77
2021/03/24 09:44:57;;;;;;;46.10;24.13;;;;;;;6.35;67.27;99574.64;2135407;83;21260;-77
2021/03/24 09:47:58;;;;;;;41.30;24.17;;;;;;;6.41;67.21;99574.00;2134949;83;21279;-76
2021/03/24 09:50:59;;;;;;;40.03;23.10;;;;;;;6.54;67.04;99569.77;2135060;83;21133;-76
2021/03/24 09:54:00;;;;;;;41.30;22.33;;;;;;;6.66;66.39;99565.05;2134272;83;21316;-77
2021/03/24 09:57:01;;;;;;;38.03;22.43;;;;;;;6.65;65.74;99567.18;2134315;83;21146;-76
2021/03/24 10:00:02;;;;;;;41.37;22.57;;;;;;;6.67;65.79;99561.64;2133827;83;21169;-76
2021/03/24 10:03:03;;;;;;;43.30;23.63;;;;;;;6.77;65.92;99561.16;2134549;83;21937;-76
2021/03/24 10:06:04;;;;;;;42.43;21.97;;;;;;;6.76;65.67;99563.70;2134783;83;21272;-77
2021/03/24 10:09:05;;;;;;;27.40;19.07;;;;;;;6.76;65.67;99563.70;2134595;83;21121;-77
2021/03/24 10:12:07;;;;;;;36.87;19.33;;;;;;;6.75;65.50;99556.33;2134518;83;21149;-76
2021/03/24 10:15:08;;;;;;;30.50;17.97;;;;;;;6.86;65.09;99562.81;2134953;83;21852;-78
2021/03/24 10:18:09;;;;;;;27.10;17.53;;;;;;;6.95;64.66;99538.94;2135115;83;21280;-76
2021/03/24 10:21:10;;;;;;;28.47;16.47;;;;;;;7.03;64.12;99553.09;2135180;83;21589;-76
2021/03/24 10:24:11;;;;;;;23.73;17.03;;;;;;;7.01;63.90;99555.62;2135440;83;21266;-76
2021/03/24 10:27:12;;;;;;;26.77;18.00;;;;;;;7.00;63.81;99564.24;2134198;83;21130;-77
2021/03/24 10:30:13;;;;;;;21.60;15.33;;;;;;;6.97;63.79;99555.05;2134967;83;21283;-77
2021/03/24 10:33:14;;;;;;;25.07;15.97;;;;;;;6.98;63.24;99550.73;2135063;83;21133;-76
2021/03/24 10:36:15;;;;;;;29.37;16.83;;;;;;;6.98;63.24;99550.73;2134412;83;21601;-76
2021/03/24 10:39:16;;;;;;;27.70;16.77;;;;;;;7.05;63.57;99552.73;2133995;83;21129;-77
2021/03/24 10:42:17;;;;;;;429.13;35.80;;;;;;;7.06;63.49;99553.62;2134743;83;21789;-76
2021/03/24 10:45:20;;;;;;;32.30;18.03;;;;;;;7.09;63.44;99553.73;2134987;83;21142;-76
2021/03/24 10:48:21;;;;;;;25.57;15.27;;;;;;;7.10;63.55;99554.20;2134955;83;21260;-77
2021/03/24 10:51:22;;;;;;;28.80;18.20;;;;;;;7.00;62.17;99556.88;2134440;83;21114;-77
2021/03/24 10:54:23;;;;;;;26.47;16.27;;;;;;;7.00;62.17;99556.88;2134222;83;21292;-76
2021/03/24 10:57:25;;;;;;;69.83;17.17;;;;;;;6.93;62.61;99560.91;2134828;83;21259;-77
2021/03/24 11:00:26;;;;;;;23.07;16.27;;;;;;;6.88;62.53;99549.48;2134693;83;21142;-77
2021/03/24 11:03:27;;;;;;;44.83;20.03;;;;;;;6.88;62.53;99549.48;2134014;83;21296;-77
2021/03/24 11:06:29;;;;;;;28.93;17.87;;;;;;;6.97;62.54;99548.55;2134532;83;21145;-77
2021/03/24 11:09:30;;;;;;;28.53;17.63;;;;;;;7.08;61.94;99550.25;2135136;83;21252;-77
2021/03/24 11:12:31;;;;;;;29.93;17.23;;;;;;;7.08;61.94;99550.25;2135104;83;21150;-77
2021/03/24 11:15:32;;;;;;;24.70;17.47;;;;;;;7.15;61.50;99544.86;2134632;83;21275;-75
2021/03/24 11:18:33;;;;;;;29.67;18.57;;;;;;;7.16;61.67;99537.55;2134656;83;21256;-76
2021/03/24 11:21:34;;;;;;;30.57;19.20;;;;;;;7.21;61.73;99539.89;2135280;83;21272;-77
2021/03/24 11:24:35;;;;;;;27.03;17.00;;;;;;;7.24;61.75;99540.00;2134661;83;21556;-77
2021/03/24 11:27:36;;;;;;;42.90;20.20;;;;;;;7.25;61.70;99536.58;2135382;83;21428;-74
2021/03/24 11:30:38;;;;;;;29.73;19.40;;;;;;;7.29;61.81;99531.97;2135424;83;21203;-76
2021/03/24 11:33:39;;;;;;;34.03;23.67;;;;;;;7.27;61.51;99532.32;2134897;83;21601;-77
2021/03/24 11:36:40;;;;;;;26.27;20.73;;;;;;;7.24;61.46;99523.13;2135377;83;21636;-77
2021/03/24 11:39:41;;;;;;;37.60;23.43;;;;;;;7.19;61.45;99529.45;2135675;83;21256;-77
2021/03/24 11:42:43;;;;;;;30.03;19.30;;;;;;;7.17;61.48;99532.82;2134806;83;21267;-77
2021/03/24 11:45:45;;;;;;;28.83;19.87;;;;;;;7.15;61.52;99526.28;2134990;83;21157;-77
2021/03/24 11:48:46;;;;;;;34.13;19.00;;;;;;;7.15;61.52;99526.28;2134806;83;21287;-77
2021/03/24 11:51:47;;;;;;;32.57;19.20;;;;;;;7.12;61.49;99531.36;2135177;83;21629;-77
2021/03/24 11:54:48;;;;;;;33.73;18.00;;;;;;;7.19;61.69;99529.45;2135185;83;21157;-77
2021/03/24 11:57:49;;;;;;;27.53;17.23;;;;;;;7.26;61.60;99522.35;2135139;83;21265;-76
2021/03/24 12:00:52;;;;;;;26.50;17.70;;;;;;;7.40;61.34;99520.23;2134820;83;21442;-77
2021/03/24 12:03:53;;;;;;;26.67;18.10;;;;;;;7.45;60.79;99519.98;2135065;83;21272;-76
2021/03/24 12:06:55;;;;;;;27.93;17.10;;;;;;;7.59;60.38;99514.84;2135025;83;21275;-76
2021/03/24 12:09:56;;;;;;;30.83;18.63;;;;;;;7.59;60.38;99514.84;2135038;83;21522;-77
2021/03/24 12:12:59;;;;;;;35.27;19.27;;;;;;;7.63;60.43;99506.33;2133866;83;21539;-77
2021/03/24 12:16:00;;;;;;;38.70;18.90;;;;;;;7.64;60.40;99502.89;2134475;83;21316;-77
2021/03/24 12:19:01;;;;;;;29.07;18.90;;;;;;;7.71;60.19;99504.41;2134341;83;21121;-77
2021/03/24 12:22:02;;;;;;;38.03;24.03;;;;;;;7.78;60.14;99500.76;2134447;83;21280;-77
2021/03/24 12:25:03;;;;;;;69.23;31.63;;;;;;;8.08;59.84;99504.80;2135218;83;21118;-77
2021/03/24 12:28:06;;;;;;;53.90;29.97;;;;;;;8.23;59.63;99498.80;2134495;83;21261;-77
2021/03/24 12:31:07;;;;;;;27.40;20.03;;;;;;;8.50;59.27;99497.48;2133109;83;21287;-77
2021/03/24 12:34:08;;;;;;;29.40;18.70;;;;;;;8.73;58.37;99496.91;2134278;83;21472;-78
2021/03/24 12:37:09;;;;;;;24.83;18.07;;;;;;;8.93;57.90;99493.16;2133751;83;21148;-76
2021/03/24 12:40:10;;;;;;;36.57;18.83;;;;;;;9.20;57.63;99493.47;2133511;83;21114;-77
2021/03/24 12:43:13;;;;;;;24.20;17.83;;;;;;;9.40;56.75;99492.28;2133444;83;21304;-77
2021/03/24 12:46:15;;;;;;;23.20;18.30;;;;;;;9.60;56.33;99485.02;2134100;83;21260;-76
2021/03/24 12:49:16;;;;;;;24.83;17.60;;;;;;;9.74;56.05;99481.04;2133898;83;21168;-78
2021/03/24 12:52:17;;;;;;;21.73;15.80;;;;;;;9.92;55.43;99477.13;2133827;83;21276;-77
2021/03/24 12:55:18;;;;;;;117.73;22.57;;;;;;;10.02;55.31;99476.50;2134421;83;21211;-79
2021/03/24 12:58:19;;;;;;;20.60;15.13;;;;;;;10.04;55.10;99478.72;2134521;83;21264;-78
2021/03/24 13:01:20;;;;;;;19.10;15.17;;;;;;;9.95;54.61;99469.38;2130969;83;21272;-77
2021/03/24 13:04:21;;;;;;;26.20;15.83;;;;;;;9.67;54.46;99470.00;2128258;83;21116;-77
2021/03/24 13:07:24;;;;;;;23.07;16.33;;;;;;;9.38;55.20;99477.03;2128143;83;21161;-77
2021/03/24 13:10:26;;;;;;;27.67;17.90;;;;;;;9.12;55.00;99476.33;2127885;83;21830;-76
2021/03/24 13:13:27;;;;;;;25.53;16.60;;;;;;;8.80;55.74;99474.13;2129518;83;21491;-77
2021/03/24 13:16:28;;;;;;;27.93;19.20;;;;;;;8.55;55.99;99471.61;2129022;83;21286;-76
2021/03/24 13:19:29;;;;;;;22.43;16.97;;;;;;;8.40;56.54;99470.73;2129301;83;21114;-76
2021/03/24 13:22:30;;;;;;;35.60;22.07;;;;;;;8.29;56.86;99470.79;2129220;83;21124;-76
2021/03/24 13:25:31;;;;;;;34.67;20.60;;;;;;;8.23;57.04;99470.19;2130220;83;21272;-76
2021/03/24 13:28:32;;;;;;;22.70;15.70;;;;;;;8.15;57.00;99475.98;2130019;83;21446;-76
2021/03/24 13:31:33;;;;;;;19.87;14.00;;;;;;;8.10;56.65;99469.75;2130075;83;21287;-76
2021/03/24 13:34:35;;;;;;;40.93;21.53;;;;;;;8.00;57.05;99462.08;2129881;83;21616;-75
2021/03/24 13:37:36;;;;;;;21.47;15.17;;;;;;;7.99;57.22;99468.11;2129189;83;21276;-76
2021/03/24 13:40:37;;;;;;;35.07;18.57;;;;;;;8.01;56.56;99462.96;2129768;83;21246;-76
2021/03/24 13:43:38;;;;;;;30.30;15.63;;;;;;;8.03;56.88;99460.00;2129721;83;21763;-76
2021/03/24 13:46:39;;;;;;;19.70;14.17;;;;;;;8.10;56.72;99460.23;2130540;83;21235;-76
2021/03/24 13:49:40;;;;;;;19.17;13.57;;;;;;;8.22;56.03;99459.31;2130399;83;21172;-76
2021/03/24 13:52:41;;;;;;;25.47;13.93;;;;;;;8.46;55.76;99459.63;2131012;83;21108;-76
2021/03/24 13:55:43;;;;;;;17.63;13.60;;;;;;;8.57;55.88;99463.43;2130907;83;21280;-76
2021/03/24 13:58:44;;;;;;;23.30;13.50;;;;;;;8.67;55.34;99459.37;2130429;83;21239;-76
2021/03/24 14:01:45;;;;;;;21.60;14.27;;;;;;;8.81;55.54;99454.18;2130870;83;21448;-76